Terminal Aerodrome Forecast
Issued by NWS Mt. Holly, NJ

Home | Current Version | Previous Version | Text Only | Print | Product List | Glossary On
Versions: 1 2 3 4 5 6 7 8 9 10 11 12 13 14 15 16 17 18 19 20
726
FTUS41 KPHI 301728
TAFRDG
TAF
KRDG 301728Z 3018/0118 12012KT P6SM BKN035
     FM010200 12008KT P6SM BKN015
     FM010700 12005KT 4SM BR OVC008
     FM011200 16005KT 6SM BR BKN010
     FM011400 19008KT P6SM BKN025=

USA.gov is the U.S. government's official web portal to all federal, state and local government web resources and services.